METAR Data

Data at: 0917 UTC 23 Jan 2019

METAR for:KISP (Islip/Macarthur Arpt, NY, US)
Text:KISP 230856Z AUTO 22007KT 10SM CLR 00/M06 A3044 RMK AO2 SLP309 T00001061 58027
Temperature: 0.0°C ( 32°F)
Dewpoint: -6.1°C ( 21°F) [RH = 63%]
Pressure (altimeter):30.44 inches Hg (1030.9 mb) [Sea level pressure: 1030.9 mb]
Winds:from the SW (220 degrees) at 8 MPH (7 knots; 3.6 m/s)
Visibility:10 or more sm (16+ km)
Ceiling:at least 12,000 feet AGL
Clouds:sky clear below 12,000 feet AGL
QC Flag:automated observation with no human augmentation